Time;durP1;ratioP1;P1;durP2;ratioP2;P2;SDS_P1;SDS_P2;PMS_P1;PMS_P2;Temp;Humidity;BMP_temperature;BMP_pressure;BME280_temperature;BME280_humidity;BME280_pressure;Samples;Min_cycle;Max_cycle;Signal;HPM_P1;HPM_P2
2022/03/06 00:01:23;;;;;;;1.60;1.50;;;2.90;82.30;;;;;;5026291;28;20653;-70
2022/03/06 00:03:51;;;;;;;1.60;1.50;;;2.80;82.30;;;;;;5026752;28;20455;-69
2022/03/06 00:06:17;;;;;;;1.60;1.50;;;2.80;82.30;;;;;;5025902;28;20935;-70
2022/03/06 00:08:44;;;;;;;1.50;1.40;;;2.80;82.70;;;;;;5025846;28;20959;-70
2022/03/06 00:11:11;;;;;;;1.57;1.40;;;2.80;82.70;;;;;;5025908;28;20937;-70
2022/03/06 00:13:38;;;;;;;1.57;1.40;;;2.70;83.00;;;;;;5027214;28;20557;-69
2022/03/06 00:16:06;;;;;;;1.70;1.60;;;2.70;83.00;;;;;;5027159;28;20470;-70
2022/03/06 00:18:35;;;;;;;1.77;1.67;;;2.70;83.00;;;;;;5027670;28;20463;-70
2022/03/06 00:21:04;;;;;;;1.60;1.50;;;2.70;83.00;;;;;;5025546;28;20486;-70
2022/03/06 00:23:30;;;;;;;1.60;1.50;;;2.70;83.00;;;;;;5028191;28;20550;-70
2022/03/06 00:25:57;;;;;;;1.60;1.50;;;2.70;83.00;;;;;;5027990;28;20807;-70
2022/03/06 00:28:24;;;;;;;1.67;1.57;;;2.60;83.00;;;;;;5030709;28;20467;-70
2022/03/06 00:30:51;;;;;;;1.60;1.50;;;2.60;83.40;;;;;;5029192;28;20490;-69
2022/03/06 00:33:17;;;;;;;1.60;1.40;;;2.50;83.90;;;;;;5023204;28;20490;-69
2022/03/06 00:35:44;;;;;;;1.60;1.43;;;2.50;83.90;;;;;;5031273;28;20459;-68
2022/03/06 00:38:12;;;;;;;1.60;1.50;;;2.40;84.20;;;;;;5031555;28;20462;-69
2022/03/06 00:40:41;;;;;;;1.70;1.60;;;2.30;83.90;;;;;;5020744;28;20882;-68
2022/03/06 00:43:08;;;;;;;1.60;1.50;;;2.20;84.60;;;;;;5029864;28;20455;-69
2022/03/06 00:45:35;;;;;;;1.53;1.40;;;2.20;85.00;;;;;;5025280;28;20978;-69
2022/03/06 00:48:01;;;;;;;1.60;1.50;;;2.10;85.30;;;;;;5031305;28;20455;-69
2022/03/06 00:50:28;;;;;;;1.60;1.50;;;2.00;85.60;;;;;;5029188;28;20994;-69
2022/03/06 00:52:57;;;;;;;1.60;1.50;;;2.00;86.20;;;;;;5030406;28;20980;-69
2022/03/06 00:55:25;;;;;;;1.73;1.63;;;1.90;86.50;;;;;;5028963;28;20491;-69
2022/03/06 00:57:52;;;;;;;1.60;1.50;;;1.80;86.90;;;;;;5030365;28;20495;-69
2022/03/06 01:00:19;;;;;;;1.60;1.50;;;1.80;87.10;;;;;;5029511;28;20463;-69
2022/03/06 01:02:45;;;;;;;1.60;1.50;;;1.70;87.10;;;;;;5029787;28;20459;-69
2022/03/06 01:05:12;;;;;;;1.70;1.60;;;1.70;87.10;;;;;;5028710;28;20463;-69
2022/03/06 01:07:39;;;;;;;1.60;1.50;;;1.60;87.70;;;;;;5030482;28;20474;-69
2022/03/06 01:10:07;;;;;;;1.60;1.50;;;1.60;87.30;;;;;;5029320;28;20478;-70
2022/03/06 01:12:35;;;;;;;1.60;1.50;;;1.50;87.50;;;;;;5030081;28;20470;-69
2022/03/06 01:15:02;;;;;;;1.60;1.50;;;1.50;87.90;;;;;;5031058;28;20661;-69
2022/03/06 01:17:28;;;;;;;1.60;1.50;;;1.40;87.30;;;;;;5032714;28;21062;-70
2022/03/06 01:19:55;;;;;;;1.60;1.50;;;1.40;88.20;;;;;;5031566;28;20467;-69
2022/03/06 01:22:22;;;;;;;1.67;1.57;;;1.30;87.70;;;;;;5030978;28;20486;-69
2022/03/06 01:24:49;;;;;;;1.60;1.50;;;1.30;87.80;;;;;;5033596;28;20944;-68
2022/03/06 01:27:15;;;;;;;1.60;1.50;;;1.30;88.30;;;;;;5030107;28;20466;-68
2022/03/06 01:29:44;;;;;;;1.83;1.73;;;1.20;88.10;;;;;;5029424;28;20850;-69
2022/03/06 01:32:11;;;;;;;1.70;1.60;;;1.20;88.10;;;;;;5028801;28;20479;-69
2022/03/06 01:34:38;;;;;;;1.70;1.60;;;1.20;88.70;;;;;;5028897;28;20506;-69
2022/03/06 01:37:05;;;;;;;1.70;1.60;;;1.10;88.50;;;;;;5029417;28;20975;-69
2022/03/06 01:39:32;;;;;;;1.67;1.57;;;1.10;88.30;;;;;;5028009;28;20972;-69
2022/03/06 01:41:58;;;;;;;1.67;1.57;;;1.00;89.80;;;;;;5029735;28;20487;-69
2022/03/06 01:44:25;;;;;;;4.43;4.13;;;1.00;89.40;;;;;;5028951;28;20471;-69
2022/03/06 01:46:54;;;;;;;1.60;1.50;;;1.00;89.50;;;;;;5029678;28;20471;-69
2022/03/06 01:49:20;;;;;;;1.70;1.60;;;1.00;89.50;;;;;;5029294;28;20768;-70
2022/03/06 01:51:47;;;;;;;1.80;1.70;;;1.00;89.50;;;;;;5029492;28;21050;-69
2022/03/06 01:54:14;;;;;;;1.67;1.57;;;1.00;89.10;;;;;;5029985;28;20833;-69
2022/03/06 01:56:41;;;;;;;1.90;1.80;;;0.90;89.50;;;;;;5030013;28;20672;-69
2022/03/06 01:59:09;;;;;;;1.90;1.80;;;0.90;89.70;;;;;;5025948;28;20544;-69
2022/03/06 02:01:37;;;;;;;1.70;1.60;;;0.90;90.20;;;;;;5027950;28;20483;-69
2022/03/06 02:04:05;;;;;;;3.30;3.10;;;0.80;89.90;;;;;;5029153;28;20462;-69
2022/03/06 02:06:32;;;;;;;1.60;1.50;;;0.80;89.90;;;;;;5029491;28;20471;-69
2022/03/06 02:08:59;;;;;;;1.60;1.50;;;0.80;90.40;;;;;;5027565;28;20505;-69
2022/03/06 02:11:27;;;;;;;1.70;1.60;;;0.70;89.80;;;;;;5028380;28;20483;-69
2022/03/06 02:13:54;;;;;;;1.60;1.50;;;0.60;89.90;;;;;;5029945;28;20518;-69
2022/03/06 02:16:21;;;;;;;1.87;1.77;;;0.60;90.20;;;;;;5029827;28;20459;-69
2022/03/06 02:18:48;;;;;;;1.70;1.60;;;0.50;90.20;;;;;;5028408;28;20467;-69
2022/03/06 02:21:16;;;;;;;1.67;1.57;;;0.50;90.50;;;;;;5019626;28;20478;-69
2022/03/06 02:23:43;;;;;;;1.70;1.60;;;0.50;90.90;;;;;;5040927;28;20979;-69
2022/03/06 02:26:11;;;;;;;1.67;1.57;;;0.40;91.90;;;;;;5029703;28;20979;-69
2022/03/06 02:28:38;;;;;;;1.70;1.60;;;0.40;91.60;;;;;;5020485;28;20459;-69
2022/03/06 02:31:05;;;;;;;1.67;1.57;;;0.40;92.10;;;;;;5022527;28;21026;-69
2022/03/06 02:33:32;;;;;;;1.90;1.80;;;0.40;91.90;;;;;;5027118;28;21039;-69
2022/03/06 02:35:59;;;;;;;1.70;1.60;;;0.30;91.70;;;;;;5011264;28;20470;-70
2022/03/06 02:38:27;;;;;;;1.80;1.70;;;0.30;92.30;;;;;;5038604;28;20467;-70
2022/03/06 02:40:54;;;;;;;1.70;1.60;;;0.20;92.80;;;;;;5026771;28;20879;-69
2022/03/06 02:43:21;;;;;;;1.70;1.60;;;0.20;92.70;;;;;;5028505;28;20538;-69
2022/03/06 02:45:48;;;;;;;1.70;1.60;;;0.20;93.50;;;;;;5028860;28;20496;-69
2022/03/06 02:48:15;;;;;;;1.80;1.70;;;0.20;93.90;;;;;;5027775;28;20467;-69
2022/03/06 02:50:42;;;;;;;1.73;1.63;;;0.20;92.60;;;;;;5023087;28;20537;-69
2022/03/06 02:53:10;;;;;;;1.80;1.70;;;0.20;93.90;;;;;;5027408;28;20463;-69
2022/03/06 02:55:40;;;;;;;1.93;1.83;;;0.20;93.40;;;;;;5027573;28;20487;-69
2022/03/06 02:58:07;;;;;;;1.70;1.60;;;0.20;93.70;;;;;;5016680;28;20487;-69
2022/03/06 03:00:34;;;;;;;1.90;1.80;;;0.20;92.80;;;;;;5024986;28;20503;-69
2022/03/06 03:03:01;;;;;;;1.70;1.60;;;0.20;92.80;;;;;;5027307;28;20954;-69
2022/03/06 03:05:29;;;;;;;1.70;1.60;;;0.20;93.00;;;;;;5027747;28;20471;-69
2022/03/06 03:07:56;;;;;;;1.70;1.60;;;0.20;93.90;;;;;;5028135;28;20956;-69
2022/03/06 03:10:25;;;;;;;1.70;1.60;;;0.20;93.60;;;;;;5026385;28;20460;-70
2022/03/06 03:12:54;;;;;;;1.80;1.70;;;0.20;93.40;;;;;;5027995;28;20541;-69
2022/03/06 03:15:21;;;;;;;1.70;1.60;;;0.20;93.30;;;;;;5028061;28;20487;-69
2022/03/06 03:17:48;;;;;;;1.70;1.60;;;0.20;93.80;;;;;;5027197;28;20773;-69
2022/03/06 03:20:15;;;;;;;1.70;1.60;;;0.20;92.80;;;;;;5026621;28;20466;-68
2022/03/06 03:22:42;;;;;;;1.80;1.70;;;0.20;93.30;;;;;;5027258;28;20470;-69
2022/03/06 03:25:10;;;;;;;1.70;1.60;;;0.20;94.10;;;;;;5028712;28;20459;-69
2022/03/06 03:27:37;;;;;;;1.80;1.70;;;0.20;94.30;;;;;;5028246;28;20467;-69
2022/03/06 03:30:07;;;;;;;1.70;1.60;;;0.20;93.50;;;;;;5027817;28;20463;-69
2022/03/06 03:32:34;;;;;;;1.70;1.60;;;0.20;93.70;;;;;;5027793;28;20783;-69
2022/03/06 03:35:01;;;;;;;1.70;1.60;;;0.20;93.90;;;;;;5027332;28;21015;-69
2022/03/06 03:37:27;;;;;;;1.80;1.70;;;0.20;94.70;;;;;;5027948;28;20680;-69
2022/03/06 03:39:54;;;;;;;1.70;1.60;;;0.20;93.70;;;;;;5027433;28;20822;-70
2022/03/06 03:42:21;;;;;;;1.60;1.50;;;0.20;93.60;;;;;;5027787;28;20502;-68
2022/03/06 03:44:48;;;;;;;1.70;1.60;;;0.10;94.10;;;;;;5028304;28;21082;-68
2022/03/06 03:47:16;;;;;;;1.70;1.60;;;0.10;94.20;;;;;;5026927;28;20840;-68
2022/03/06 03:49:43;;;;;;;1.90;1.80;;;0.10;93.70;;;;;;5026612;28;20551;-68
2022/03/06 03:52:09;;;;;;;1.80;1.70;;;0.10;93.30;;;;;;5027475;28;20479;-70
2022/03/06 03:54:36;;;;;;;1.70;1.60;;;0.10;93.20;;;;;;5028096;28;20498;-71
2022/03/06 03:57:04;;;;;;;1.70;1.60;;;0.10;93.30;;;;;;5027592;28;20491;-71
2022/03/06 03:59:31;;;;;;;1.70;1.60;;;0.10;93.90;;;;;;5027713;28;20971;-70
2022/03/06 04:01:57;;;;;;;1.70;1.60;;;0.10;95.00;;;;;;5026440;28;20486;-67
2022/03/06 04:04:26;;;;;;;1.87;1.77;;;0.10;95.10;;;;;;5027845;28;20455;-68
2022/03/06 04:06:53;;;;;;;1.70;1.60;;;0.20;95.30;;;;;;5026798;28;20466;-70
2022/03/06 04:09:19;;;;;;;1.70;1.60;;;0.20;94.80;;;;;;5028377;28;20463;-70
2022/03/06 04:11:46;;;;;;;1.70;1.60;;;0.20;94.70;;;;;;5027217;28;20483;-70
2022/03/06 04:14:13;;;;;;;1.70;1.60;;;0.20;95.40;;;;;;5026273;28;20474;-70
2022/03/06 04:16:39;;;;;;;1.70;1.60;;;0.20;95.00;;;;;;5027429;28;20474;-70
2022/03/06 04:19:07;;;;;;;1.60;1.50;;;0.20;94.10;;;;;;5027296;28;21076;-70
2022/03/06 04:21:35;;;;;;;1.70;1.60;;;0.30;94.40;;;;;;5021636;28;20863;-70
2022/03/06 04:24:02;;;;;;;1.70;1.60;;;0.30;95.40;;;;;;5021565;28;20486;-70
2022/03/06 04:26:29;;;;;;;1.70;1.60;;;0.30;95.10;;;;;;5020763;28;20474;-70
2022/03/06 04:28:55;;;;;;;1.87;1.77;;;0.30;95.50;;;;;;5027382;28;20459;-70
2022/03/06 04:31:22;;;;;;;1.70;1.60;;;0.40;95.50;;;;;;5020878;28;21044;-70
2022/03/06 04:33:49;;;;;;;1.70;1.60;;;0.40;94.70;;;;;;5038883;28;20451;-70
2022/03/06 04:36:16;;;;;;;1.70;1.60;;;0.40;94.90;;;;;;5024121;28;20545;-70
2022/03/06 04:38:44;;;;;;;1.70;1.60;;;0.50;95.20;;;;;;5025461;28;20470;-70
2022/03/06 04:41:11;;;;;;;1.70;1.60;;;0.50;94.40;;;;;;5024372;28;20545;-70
2022/03/06 04:43:38;;;;;;;1.67;1.57;;;0.50;94.70;;;;;;5028169;28;20466;-70
2022/03/06 04:46:05;;;;;;;1.60;1.50;;;0.50;95.00;;;;;;5024648;28;20459;-70
2022/03/06 04:48:32;;;;;;;1.90;1.80;;;0.60;94.80;;;;;;5027984;28;20459;-70
2022/03/06 04:50:58;;;;;;;1.70;1.60;;;0.60;94.40;;;;;;5024745;28;20487;-70
2022/03/06 04:53:26;;;;;;;1.60;1.50;;;0.60;94.60;;;;;;5028330;28;20463;-70
2022/03/06 04:55:54;;;;;;;1.70;1.60;;;0.60;94.30;;;;;;5027391;28;20910;-70
2022/03/06 04:58:20;;;;;;;1.70;1.60;;;0.70;94.30;;;;;;5026699;28;20470;-70
2022/03/06 05:00:47;;;;;;;1.60;1.50;;;0.70;94.20;;;;;;5021992;28;20479;-70
2022/03/06 05:03:14;;;;;;;1.60;1.50;;;0.70;94.60;;;;;;5026206;28;20471;-70
2022/03/06 05:05:40;;;;;;;1.80;1.70;;;0.70;94.10;;;;;;5026419;28;20851;-70
2022/03/06 05:08:07;;;;;;;1.60;1.50;;;0.70;94.10;;;;;;5026064;28;20467;-70
2022/03/06 05:10:35;;;;;;;1.60;1.50;;;0.70;94.60;;;;;;5026180;28;20491;-71
2022/03/06 05:13:04;;;;;;;1.63;1.53;;;0.80;93.70;;;;;;5032758;28;21046;-70
2022/03/06 05:15:31;;;;;;;1.80;1.70;;;0.70;94.30;;;;;;5027534;28;20483;-70
2022/03/06 05:17:57;;;;;;;1.73;1.63;;;0.70;94.30;;;;;;5035613;28;20998;-70
2022/03/06 05:20:24;;;;;;;1.60;1.50;;;0.80;94.40;;;;;;5028693;28;20493;-71
2022/03/06 05:22:51;;;;;;;1.60;1.50;;;0.80;95.10;;;;;;5030158;28;20459;-70
2022/03/06 05:25:17;;;;;;;1.70;1.60;;;0.80;94.30;;;;;;5031177;28;20854;-70
2022/03/06 05:27:44;;;;;;;1.73;1.63;;;0.80;95.60;;;;;;5029601;28;20471;-70
2022/03/06 05:30:14;;;;;;;1.70;1.60;;;0.80;94.60;;;;;;5028640;28;20553;-70
2022/03/06 05:32:42;;;;;;;1.77;1.67;;;0.80;94.90;;;;;;5033899;28;21159;-70
2022/03/06 05:35:10;;;;;;;1.70;1.60;;;0.80;94.40;;;;;;5030399;28;20576;-70
2022/03/06 05:37:37;;;;;;;1.70;1.60;;;0.80;94.60;;;;;;5029724;28;20495;-71
2022/03/06 05:40:05;;;;;;;1.80;1.70;;;0.80;94.50;;;;;;5028357;28;20463;-71
2022/03/06 05:45:01;;;;;;;1.70;1.60;;;0.70;94.90;;;;;;5028867;28;20487;-73
2022/03/06 05:47:29;;;;;;;1.63;1.53;;;0.70;95.10;;;;;;5030212;28;20470;-71
2022/03/06 05:49:56;;;;;;;1.60;1.50;;;0.70;95.30;;;;;;5029538;28;20466;-73
2022/03/06 05:52:23;;;;;;;1.80;1.70;;;0.70;94.90;;;;;;5030402;28;20483;-71
2022/03/06 05:54:50;;;;;;;1.60;1.50;;;0.70;94.80;;;;;;5030423;28;20846;-73
2022/03/06 05:57:17;;;;;;;1.70;1.60;;;0.60;94.20;;;;;;5030625;28;20474;-73
2022/03/06 05:59:44;;;;;;;1.70;1.60;;;0.60;95.20;;;;;;5029470;28;20467;-75
2022/03/06 06:02:10;;;;;;;1.70;1.60;;;0.60;95.60;;;;;;5028931;28;20509;-73
2022/03/06 06:04:41;;;;;;;1.60;1.50;;;0.50;95.60;;;;;;5028323;28;20463;-73
2022/03/06 06:07:09;;;;;;;1.70;1.60;;;0.50;95.40;;;;;;5026413;28;20512;-72
2022/03/06 06:09:36;;;;;;;1.70;1.60;;;0.50;95.00;;;;;;5023780;28;20788;-76
2022/03/06 06:12:03;;;;;;;1.83;1.73;;;0.50;94.40;;;;;;5027724;28;20483;-72
2022/03/06 06:14:31;;;;;;;1.70;1.60;;;0.50;95.30;;;;;;5028788;28;20474;-72
2022/03/06 06:16:57;;;;;;;1.60;1.50;;;0.40;95.40;;;;;;5029039;28;20489;-72
2022/03/06 06:19:24;;;;;;;1.77;1.67;;;0.40;95.60;;;;;;5027943;28;20464;-73
2022/03/06 06:21:52;;;;;;;1.60;1.50;;;0.40;96.00;;;;;;5010725;28;21031;-72
2022/03/06 06:24:19;;;;;;;1.70;1.60;;;0.30;96.10;;;;;;5019123;28;22068;-70
2022/03/06 06:26:47;;;;;;;1.70;1.60;;;0.30;95.00;;;;;;5027826;28;20459;-70
2022/03/06 06:29:15;;;;;;;1.90;1.80;;;0.30;96.20;;;;;;5028772;28;20467;-71
2022/03/06 06:31:42;;;;;;;1.70;1.60;;;0.20;96.90;;;;;;5025948;28;20877;-70
2022/03/06 06:34:09;;;;;;;1.70;1.60;;;0.20;98.00;;;;;;5026629;28;20505;-70
2022/03/06 06:36:36;;;;;;;1.70;1.60;;;0.20;97.50;;;;;;5022030;28;20482;-70
2022/03/06 06:39:04;;;;;;;1.70;1.60;;;0.20;98.00;;;;;;5025645;28;20467;-71
2022/03/06 06:41:31;;;;;;;1.70;1.60;;;0.20;97.90;;;;;;5026835;28;20483;-70
2022/03/06 06:43:57;;;;;;;1.70;1.60;;;0.20;98.20;;;;;;5026679;28;20467;-70
2022/03/06 06:46:24;;;;;;;1.70;1.60;;;0.30;98.20;;;;;;5027802;28;20539;-70
2022/03/06 06:48:51;;;;;;;1.60;1.50;;;0.30;98.20;;;;;;5028423;28;20467;-70
2022/03/06 06:51:17;;;;;;;1.70;1.60;;;0.30;98.20;;;;;;5029344;28;20506;-70
2022/03/06 06:53:44;;;;;;;1.70;1.60;;;0.30;98.20;;;;;;5029076;28;20470;-70
2022/03/06 06:56:12;;;;;;;1.70;1.60;;;0.30;98.20;;;;;;5026894;28;20487;-70
2022/03/06 06:58:39;;;;;;;1.70;1.60;;;0.40;98.20;;;;;;5028966;28;20944;-71
2022/03/06 07:01:06;;;;;;;1.70;1.60;;;0.40;98.20;;;;;;5027195;28;20494;-71
2022/03/06 07:03:33;;;;;;;1.80;1.70;;;0.40;98.20;;;;;;5027930;28;20495;-76
2022/03/06 07:06:00;;;;;;;1.63;1.53;;;0.50;98.20;;;;;;5019335;28;20980;-73
2022/03/06 07:08:27;;;;;;;1.60;1.50;;;0.50;98.20;;;;;;5041038;28;20823;-71
2022/03/06 07:10:54;;;;;;;1.80;1.70;;;0.60;98.20;;;;;;5017382;28;20470;-69
2022/03/06 07:13:22;;;;;;;1.70;1.60;;;0.60;98.20;;;;;;5042834;28;20475;-71
2022/03/06 07:15:48;;;;;;;1.60;1.50;;;0.70;98.20;;;;;;5020004;28;20491;-71
2022/03/06 07:18:15;;;;;;;1.70;1.60;;;0.80;98.20;;;;;;5042803;28;20991;-68
2022/03/06 07:20:42;;;;;;;1.70;1.60;;;0.90;98.20;;;;;;5026261;28;20490;-68
2022/03/06 07:23:08;;;;;;;1.70;1.60;;;1.00;98.20;;;;;;5027846;28;20850;-68
2022/03/06 07:25:35;;;;;;;1.57;1.40;;;1.10;98.20;;;;;;5028606;28;20455;-68
2022/03/06 07:28:02;;;;;;;1.60;1.50;;;1.20;98.20;;;;;;5028010;28;20848;-69
2022/03/06 07:30:30;;;;;;;1.70;1.60;;;1.30;98.10;;;;;;5025995;28;20486;-68
2022/03/06 07:32:57;;;;;;;1.70;1.60;;;1.30;97.50;;;;;;5030963;28;20864;-69
2022/03/06 07:35:24;;;;;;;1.60;1.50;;;1.40;97.40;;;;;;5026067;28;20463;-69
2022/03/06 07:37:51;;;;;;;1.70;1.60;;;1.50;97.40;;;;;;5026150;28;20753;-69
2022/03/06 07:40:19;;;;;;;1.90;1.80;;;1.50;97.40;;;;;;5026573;28;20463;-69
2022/03/06 07:42:46;;;;;;;1.60;1.50;;;1.60;97.10;;;;;;5028037;28;20491;-73
2022/03/06 07:45:13;;;;;;;1.63;1.53;;;1.70;96.70;;;;;;5028459;28;20467;-72
2022/03/06 07:47:42;;;;;;;1.60;1.50;;;1.70;97.50;;;;;;5031126;28;20878;-71
2022/03/06 07:50:11;;;;;;;1.57;1.40;;;1.80;97.40;;;;;;5026195;28;20482;-70
2022/03/06 07:52:38;;;;;;;1.53;1.43;;;2.00;97.70;;;;;;5025865;28;20489;-70
2022/03/06 07:55:07;;;;;;;1.60;1.50;;;2.20;97.70;;;;;;5015676;28;20464;-70
2022/03/06 07:57:34;;;;;;;1.63;1.53;;;2.40;97.20;;;;;;5018943;28;20491;-71
2022/03/06 08:00:01;;;;;;;1.70;1.60;;;2.60;96.60;;;;;;5016364;28;20460;-71
2022/03/06 08:02:27;;;;;;;1.70;1.60;;;2.80;95.60;;;;;;5025460;28;20482;-71
2022/03/06 08:04:56;;;;;;;1.60;1.50;;;3.00;95.80;;;;;;5023393;28;20464;-71
2022/03/06 08:07:22;;;;;;;1.57;1.40;;;3.20;95.40;;;;;;5020108;28;20478;-71
2022/03/06 08:09:49;;;;;;;1.60;1.47;;;3.40;94.40;;;;;;5019324;28;20479;-71
2022/03/06 08:12:16;;;;;;;1.57;1.40;;;3.60;93.30;;;;;;5021876;28;20570;-71
2022/03/06 08:14:43;;;;;;;1.60;1.50;;;3.80;92.50;;;;;;5020839;28;20474;-71
2022/03/06 08:17:09;;;;;;;1.60;1.50;;;3.90;91.60;;;;;;5016978;28;20487;-71
2022/03/06 08:19:36;;;;;;;1.60;1.40;;;4.10;91.20;;;;;;5027666;28;20464;-70
2022/03/06 08:22:07;;;;;;;1.60;1.40;;;4.20;91.00;;;;;;5022343;28;20853;-70
2022/03/06 08:24:34;;;;;;;1.60;1.43;;;4.30;90.20;;;;;;5025161;28;20491;-70
2022/03/06 08:27:01;;;;;;;1.57;1.40;;;4.50;89.50;;;;;;5025103;28;20478;-69
2022/03/06 08:29:27;;;;;;;1.60;1.40;;;4.60;89.30;;;;;;5020443;28;20459;-70
2022/03/06 08:31:54;;;;;;;1.50;1.30;;;4.80;89.20;;;;;;5022994;28;21039;-75
2022/03/06 08:34:21;;;;;;;1.57;1.40;;;5.00;88.50;;;;;;5025133;28;20471;-74
2022/03/06 08:36:48;;;;;;;1.53;1.30;;;5.30;87.70;;;;;;5023361;28;20486;-70
2022/03/06 08:39:16;;;;;;;1.53;1.40;;;5.50;86.50;;;;;;5034740;28;20838;-73
2022/03/06 08:41:43;;;;;;;1.50;1.30;;;5.60;86.00;;;;;;5009100;28;21018;-73
2022/03/06 08:44:10;;;;;;;1.60;1.30;;;5.70;85.70;;;;;;5029189;28;20901;-72
2022/03/06 08:46:36;;;;;;;1.53;1.30;;;5.90;85.00;;;;;;5013138;28;20475;-72
2022/03/06 08:49:03;;;;;;;1.53;1.30;;;5.90;84.00;;;;;;5017704;28;20467;-71
2022/03/06 08:51:30;;;;;;;1.50;1.30;;;6.00;83.70;;;;;;5023914;28;20493;-68
2022/03/06 08:53:57;;;;;;;1.50;1.30;;;6.10;84.20;;;;;;5026393;28;20503;-73
2022/03/06 08:56:25;;;;;;;1.50;1.20;;;6.30;83.90;;;;;;5025549;28;20922;-72
2022/03/06 08:58:52;;;;;;;1.53;1.40;;;6.50;83.30;;;;;;5025837;28;20838;-70
2022/03/06 09:01:19;;;;;;;1.50;1.30;;;6.60;82.60;;;;;;5023367;28;20562;-69
2022/03/06 09:03:46;;;;;;;1.50;1.23;;;6.80;82.00;;;;;;5024784;28;20851;-69
2022/03/06 09:06:13;;;;;;;1.50;1.20;;;7.00;81.80;;;;;;5017461;28;20478;-73
2022/03/06 09:08:40;;;;;;;1.50;1.20;;;7.10;81.40;;;;;;5037277;28;20470;-69
2022/03/06 09:11:07;;;;;;;1.50;1.20;;;7.30;81.20;;;;;;5013277;28;20494;-69
2022/03/06 09:13:35;;;;;;;1.60;1.20;;;7.30;81.30;;;;;;5034921;28;20463;-72
2022/03/06 09:16:03;;;;;;;1.50;1.20;;;7.40;82.20;;;;;;5022260;28;20859;-74
2022/03/06 09:18:30;;;;;;;1.60;1.50;;;7.30;82.90;;;;;;5025365;28;20470;-70
2022/03/06 09:20:57;;;;;;;1.50;1.20;;;7.30;82.80;;;;;;5023272;28;20471;-71
2022/03/06 09:23:25;;;;;;;1.50;1.20;;;7.40;83.10;;;;;;5025946;28;21119;-71
2022/03/06 09:25:52;;;;;;;1.50;1.30;;;7.50;83.00;;;;;;5023865;28;20467;-75
2022/03/06 09:28:18;;;;;;;1.50;1.20;;;7.50;83.40;;;;;;5024956;28;20970;-69
2022/03/06 09:30:47;;;;;;;1.50;1.20;;;7.60;82.60;;;;;;5024228;28;20463;-71
2022/03/06 09:33:14;;;;;;;1.77;1.50;;;7.70;82.80;;;;;;5024590;28;20474;-70
2022/03/06 09:35:41;;;;;;;1.50;1.20;;;7.70;82.60;;;;;;5023439;28;20633;-70
2022/03/06 09:38:08;;;;;;;1.50;1.20;;;7.70;82.00;;;;;;5022988;28;20609;-70
2022/03/06 09:40:35;;;;;;;1.53;1.40;;;7.70;82.10;;;;;;5023608;28;20490;-71
2022/03/06 09:43:03;;;;;;;1.50;1.20;;;7.80;82.00;;;;;;5025279;28;20487;-72
2022/03/06 09:45:33;;;;;;;1.50;1.27;;;7.90;82.90;;;;;;5025474;28;20466;-76
2022/03/06 09:48:03;;;;;;;1.50;1.20;;;8.00;82.20;;;;;;5021809;28;20462;-70
2022/03/06 09:50:30;;;;;;;1.50;1.37;;;8.00;80.00;;;;;;5023522;28;20466;-69
2022/03/06 09:52:57;;;;;;;1.50;1.20;;;8.00;80.10;;;;;;5028769;28;21046;-70
2022/03/06 09:55:23;;;;;;;1.50;1.20;;;8.00;80.60;;;;;;5024914;28;20463;-70
2022/03/06 09:57:54;;;;;;;1.50;1.10;;;8.10;79.90;;;;;;5024133;28;20487;-70
2022/03/06 10:00:20;;;;;;;1.50;1.20;;;8.20;80.10;;;;;;5021894;28;20466;-75
2022/03/06 10:02:58;;;;;;;1.77;1.67;;;8.20;80.40;;;;;;5024594;28;20494;-73
2022/03/06 10:05:34;;;;;;;1.50;1.30;;;8.40;80.70;;;;;;5021705;28;20516;-71
2022/03/06 10:08:18;;;;;;;1.50;1.20;;;8.40;79.90;;;;;;5023541;28;20463;-71
2022/03/06 10:10:46;;;;;;;1.50;1.20;;;8.50;80.20;;;;;;5022402;28;20470;-71
2022/03/06 10:13:25;;;;;;;1.50;1.20;;;8.70;79.90;;;;;;5023750;28;20475;-71
2022/03/06 10:16:01;;;;;;;1.50;1.03;;;8.90;79.70;;;;;;5022633;28;20469;-71
2022/03/06 10:18:29;;;;;;;1.50;1.10;;;9.10;78.40;;;;;;5021241;28;20962;-71
2022/03/06 10:21:02;;;;;;;1.50;1.10;;;9.20;78.90;;;;;;5012731;28;20464;-71
2022/03/06 10:23:29;;;;;;;1.50;1.17;;;9.40;78.40;;;;;;5037145;28;20498;-71
2022/03/06 10:26:03;;;;;;;1.50;1.10;;;9.50;78.30;;;;;;5023816;28;20470;-70
2022/03/06 10:28:29;;;;;;;1.50;1.20;;;9.60;77.50;;;;;;5023211;28;20470;-70
2022/03/06 10:31:04;;;;;;;1.50;1.10;;;9.70;77.00;;;;;;5022747;28;20463;-69
2022/03/06 10:33:31;;;;;;;1.50;1.10;;;9.80;76.80;;;;;;5023387;28;20463;-69
2022/03/06 10:36:01;;;;;;;1.50;1.00;;;9.90;75.90;;;;;;5030035;28;20533;-71
2022/03/06 10:38:31;;;;;;;1.50;1.10;;;9.80;76.00;;;;;;5043407;28;20575;-69
2022/03/06 10:40:59;;;;;;;1.50;1.10;;;9.80;75.30;;;;;;5018800;28;20467;-71
2022/03/06 10:43:28;;;;;;;1.50;1.10;;;9.80;75.20;;;;;;5023157;28;20490;-72
2022/03/06 10:46:06;;;;;;;1.50;1.10;;;9.80;75.90;;;;;;5023279;28;20474;-72
2022/03/06 10:48:33;;;;;;;1.50;1.10;;;9.80;76.00;;;;;;5022355;28;20923;-71
2022/03/06 10:51:01;;;;;;;1.63;1.53;;;9.80;75.70;;;;;;5021321;28;21049;-74
2022/03/06 10:53:30;;;;;;;1.50;1.10;;;9.70;75.80;;;;;;5022053;28;20746;-71
2022/03/06 10:56:08;;;;;;;1.50;1.10;;;9.70;75.90;;;;;;5022826;28;20463;-71
2022/03/06 10:58:38;;;;;;;1.50;1.10;;;9.70;76.00;;;;;;5022267;28;20525;-70
2022/03/06 11:01:05;;;;;;;1.50;1.10;;;9.70;75.90;;;;;;5020546;28;20752;-71
2022/03/06 11:03:33;;;;;;;1.50;1.10;;;9.80;75.10;;;;;;5021245;28;20467;-70
2022/03/06 11:06:01;;;;;;;1.50;1.10;;;9.90;74.90;;;;;;5018740;28;20556;-71
2022/03/06 11:08:30;;;;;;;1.50;1.10;;;9.90;75.20;;;;;;5023412;28;20460;-73
2022/03/06 11:10:57;;;;;;;1.43;1.07;;;9.90;75.30;;;;;;5022130;28;21309;-71
2022/03/06 11:13:24;;;;;;;1.50;1.10;;;9.90;75.20;;;;;;5022924;28;20478;-72
2022/03/06 11:15:51;;;;;;;1.50;1.10;;;10.00;75.30;;;;;;5012467;28;21046;-71
2022/03/06 11:18:19;;;;;;;1.50;1.30;;;10.10;73.70;;;;;;5036528;28;20901;-73
2022/03/06 11:20:47;;;;;;;1.50;1.10;;;10.30;72.70;;;;;;5022247;28;20463;-76
2022/03/06 11:23:23;;;;;;;1.50;1.10;;;10.50;73.60;;;;;;5010718;28;20475;-71
2022/03/06 11:26:21;;;;;;;1.50;1.00;;;10.70;72.00;;;;;;5020902;28;20470;-71
2022/03/06 11:29:05;;;;;;;2.13;1.93;;;10.90;71.90;;;;;;5020369;28;21023;-71
2022/03/06 11:31:44;;;;;;;1.50;1.00;;;11.10;71.40;;;;;;5020774;28;20478;-71
2022/03/06 11:34:13;;;;;;;1.50;1.20;;;11.20;70.40;;;;;;5022266;28;20558;-72
2022/03/06 11:36:49;;;;;;;1.50;1.00;;;11.40;70.20;;;;;;5018801;28;20488;-72
2022/03/06 11:39:36;;;;;;;1.50;1.00;;;11.70;69.90;;;;;;5028646;28;20474;-71
2022/03/06 11:42:06;;;;;;;1.50;1.10;;;11.80;68.80;;;;;;5020558;28;20486;-71
2022/03/06 11:44:34;;;;;;;1.50;1.00;;;11.90;68.60;;;;;;5021941;28;20471;-71
2022/03/06 11:47:00;;;;;;;1.50;1.10;;;12.10;67.60;;;;;;5021688;28;20514;-72
2022/03/06 11:49:34;;;;;;;1.50;0.97;;;12.30;66.30;;;;;;5027608;28;20466;-76
2022/03/06 11:52:01;;;;;;;1.50;1.00;;;12.50;66.00;;;;;;5020553;28;20486;-71
2022/03/06 11:54:43;;;;;;;1.50;1.00;;;12.70;65.70;;;;;;5023189;28;20467;-70
2022/03/06 11:57:11;;;;;;;1.50;1.10;;;13.00;65.10;;;;;;5021288;28;20494;-70
2022/03/06 11:59:46;;;;;;;1.50;1.00;;;13.00;63.00;;;;;;5025592;28;20473;-70
2022/03/06 12:02:22;;;;;;;1.50;1.00;;;13.00;60.80;;;;;;5022140;28;20514;-74
2022/03/06 12:42:27;;;;;;;1.47;1.00;;;11.70;60.90;;;;;;5060248;28;20503;-75
2022/03/06 12:44:56;;;;;;;1.50;1.00;;;11.70;60.80;;;;;;5046018;28;20569;-71
2022/03/06 12:47:23;;;;;;;1.47;1.00;;;11.80;60.30;;;;;;5061562;28;21042;-70
2022/03/06 12:59:59;;;;;;;1.50;1.10;;;12.00;61.10;;;;;;5052446;28;20488;-70
2022/03/06 13:02:26;;;;;;;1.80;1.53;;;12.00;61.50;;;;;;5059510;28;20477;-70
2022/03/06 13:04:55;;;;;;;1.50;1.00;;;11.60;60.40;;;;;;5055280;28;20950;-70
2022/03/06 13:07:24;;;;;;;1.50;1.00;;;11.30;62.10;;;;;;5062240;28;20461;-70
2022/03/06 13:09:56;;;;;;;1.47;1.03;;;11.20;62.60;;;;;;5060959;28;21067;-70
2022/03/06 13:12:23;;;;;;;1.50;1.00;;;11.10;63.30;;;;;;5057807;28;20488;-69
2022/03/06 13:14:50;;;;;;;1.50;1.10;;;11.00;63.10;;;;;;5054187;28;20911;-70
2022/03/06 13:17:21;;;;;;;1.50;1.10;;;10.90;63.80;;;;;;5051803;28;20500;-70
2022/03/06 13:19:50;;;;;;;1.47;1.00;;;11.00;63.70;;;;;;5054487;28;20468;-69
2022/03/06 13:22:19;;;;;;;1.50;1.13;;;11.10;63.10;;;;;;5043028;28;20711;-70
2022/03/06 13:24:47;;;;;;;1.43;1.00;;;11.00;63.50;;;;;;5062461;28;20977;-70
2022/03/06 13:27:20;;;;;;;1.50;1.40;;;10.70;63.00;;;;;;5056032;28;20457;-70
2022/03/06 13:29:59;;;;;;;1.50;1.10;;;10.70;63.80;;;;;;5053810;28;20466;-70
2022/03/06 13:32:28;;;;;;;1.50;1.10;;;10.60;64.20;;;;;;5058788;28;20489;-70
2022/03/06 13:34:55;;;;;;;1.50;1.00;;;10.60;64.80;;;;;;5062755;28;20461;-70
2022/03/06 13:37:31;;;;;;;1.47;1.03;;;10.60;63.30;;;;;;5039913;28;20481;-70
2022/03/06 13:39:58;;;;;;;1.50;1.10;;;10.60;64.70;;;;;;5047114;28;20465;-70
2022/03/06 13:42:32;;;;;;;1.50;1.10;;;10.80;62.70;;;;;;5051643;28;20482;-70
2022/03/06 13:44:58;;;;;;;1.50;1.10;;;10.70;63.30;;;;;;5062411;28;20477;-70
2022/03/06 13:47:27;;;;;;;1.47;1.10;;;10.40;62.70;;;;;;5062105;28;20472;-71
2022/03/06 13:50:01;;;;;;;1.47;1.10;;;10.20;63.10;;;;;;5061399;28;20472;-70